createdAt,value
2019-05-25T00:00:34.179Z,0
2019-05-25T00:01:34.870Z,0
2019-05-25T00:02:35.551Z,0
2019-05-25T00:03:36.230Z,0
2019-05-25T00:04:36.889Z,0
2019-05-25T00:05:37.576Z,0
2019-05-25T00:06:38.260Z,0
2019-05-25T00:07:38.996Z,0
2019-05-25T00:08:39.662Z,0
2019-05-25T00:09:40.347Z,0
2019-05-25T00:10:41.036Z,0
2019-05-25T00:11:41.747Z,0
2019-05-25T00:12:42.473Z,0
2019-05-25T00:13:43.158Z,0
2019-05-25T00:14:43.846Z,0
2019-05-25T00:15:44.531Z,0
2019-05-25T00:16:45.223Z,0
2019-05-25T00:17:45.907Z,0
2019-05-25T00:18:46.672Z,0
2019-05-25T00:19:47.358Z,0
2019-05-25T00:20:48.035Z,0
2019-05-25T00:21:48.719Z,0
2019-05-25T00:22:49.407Z,0
2019-05-25T00:23:50.094Z,0
2019-05-25T00:24:50.781Z,0
2019-05-25T00:25:51.471Z,0
2019-05-25T00:26:52.155Z,0
2019-05-25T00:27:52.843Z,0
2019-05-25T00:28:53.554Z,0
2019-05-25T00:29:54.315Z,0
2019-05-25T00:30:55.031Z,0
2019-05-25T00:31:55.733Z,0
2019-05-25T00:32:56.445Z,0
2019-05-25T00:33:57.155Z,0
2019-05-25T00:34:57.894Z,0
2019-05-25T00:35:58.586Z,0
2019-05-25T00:36:59.356Z,0
2019-05-25T00:38:00.115Z,0
2019-05-25T00:39:00.836Z,0
2019-05-25T00:40:01.636Z,0
2019-05-25T00:41:02.719Z,0
2019-05-25T00:42:03.467Z,0
2019-05-25T00:43:04.248Z,0
2019-05-25T00:44:04.963Z,0
2019-05-25T00:45:05.814Z,0
2019-05-25T00:46:06.638Z,0
2019-05-25T00:47:07.342Z,0
2019-05-25T00:48:08.056Z,0
2019-05-25T00:49:08.764Z,0
2019-05-25T00:50:09.533Z,0
2019-05-25T00:51:10.296Z,0
2019-05-25T00:52:10.993Z,0
2019-05-25T00:53:11.683Z,0
2019-05-25T00:54:27.121Z,0
2019-05-25T00:55:13.285Z,0
2019-05-25T00:56:14.028Z,0
2019-05-25T00:57:14.773Z,0
2019-05-25T00:58:15.573Z,0
2019-05-25T00:59:16.354Z,0
2019-05-25T01:00:17.111Z,0
2019-05-25T01:01:17.791Z,0
2019-05-25T01:02:18.525Z,0
2019-05-25T01:03:19.219Z,0
2019-05-25T01:04:19.921Z,0
2019-05-25T01:05:20.658Z,0
2019-05-25T01:06:21.447Z,0
2019-05-25T01:07:22.213Z,0
2019-05-25T01:08:22.904Z,0
2019-05-25T01:09:23.698Z,0
2019-05-25T01:10:24.493Z,0
2019-05-25T01:11:25.336Z,0
2019-05-25T01:12:26.142Z,0
2019-05-25T01:13:26.938Z,0
2019-05-25T01:14:27.633Z,0
2019-05-25T01:15:28.361Z,0
2019-05-25T01:16:29.144Z,0
2019-05-25T01:17:29.977Z,0
2019-05-25T01:18:30.740Z,0
2019-05-25T01:19:31.422Z,0
2019-05-25T01:20:32.082Z,0
2019-05-25T01:21:32.820Z,0
2019-05-25T01:22:33.498Z,0
2019-05-25T01:23:34.187Z,0
2019-05-25T01:24:44.041Z,0
2019-05-25T01:25:35.541Z,0
2019-05-25T01:26:36.230Z,0
2019-05-25T01:27:36.919Z,0
2019-05-25T01:28:38.037Z,0
2019-05-25T01:29:38.700Z,0
2019-05-25T01:30:39.325Z,0
2019-05-25T01:31:40.003Z,0
2019-05-25T01:32:40.675Z,0
2019-05-25T01:33:41.361Z,0
2019-05-25T01:34:42.068Z,0
2019-05-25T01:35:42.797Z,0
2019-05-25T01:36:43.479Z,0
2019-05-25T01:37:44.166Z,0
2019-05-25T01:38:44.855Z,0
2019-05-25T01:39:45.539Z,0
2019-05-25T01:40:46.221Z,0
2019-05-25T01:41:46.909Z,0
2019-05-25T01:42:47.607Z,0
2019-05-25T01:43:48.446Z,0
2019-05-25T01:44:49.120Z,0
2019-05-25T01:45:49.829Z,0
2019-05-25T01:46:50.545Z,0
2019-05-25T01:47:51.409Z,0
2019-05-25T01:48:52.034Z,0
2019-05-25T01:49:52.714Z,0
2019-05-25T01:50:53.402Z,0
2019-05-25T01:51:54.363Z,0
2019-05-25T01:52:55.048Z,0
2019-05-25T01:53:55.774Z,0
2019-05-25T01:54:59.978Z,0
2019-05-25T01:55:57.124Z,0
2019-05-25T01:56:57.808Z,0
2019-05-25T01:57:58.496Z,0
2019-05-25T01:58:59.191Z,0
2019-05-25T01:59:59.875Z,0
2019-05-25T02:01:00.562Z,0
2019-05-25T02:02:01.252Z,0
2019-05-25T02:03:02.011Z,0
2019-05-25T02:04:02.875Z,0
2019-05-25T02:05:03.565Z,0
2019-05-25T02:06:04.250Z,0
2019-05-25T02:07:04.942Z,0
2019-05-25T02:08:05.625Z,0
2019-05-25T02:09:06.310Z,0
2019-05-25T02:10:06.994Z,0
2019-05-25T02:11:07.681Z,0
2019-05-25T02:12:08.367Z,0
2019-05-25T02:13:09.104Z,0
2019-05-25T02:14:09.830Z,0
2019-05-25T02:15:10.486Z,0
2019-05-25T02:16:11.176Z,0
2019-05-25T02:17:11.862Z,0
2019-05-25T02:18:12.547Z,0
2019-05-25T02:19:13.235Z,0
2019-05-25T02:20:13.921Z,0
2019-05-25T02:21:14.598Z,0
2019-05-25T02:22:15.284Z,0
2019-05-25T02:23:15.964Z,0
2019-05-25T02:24:16.675Z,0
2019-05-25T02:25:18.739Z,0
2019-05-25T02:26:18.052Z,0
2019-05-25T02:27:18.697Z,0
2019-05-25T02:28:19.394Z,0
2019-05-25T02:29:20.069Z,0
2019-05-25T02:30:20.757Z,0
2019-05-25T02:31:21.445Z,0
2019-05-25T02:32:22.126Z,0
2019-05-25T02:33:22.817Z,0
2019-05-25T02:34:23.501Z,0
2019-05-25T02:35:24.189Z,4
2019-05-25T02:36:24.883Z,4
2019-05-25T02:37:25.570Z,4
2019-05-25T02:38:26.224Z,0
2019-05-25T02:39:26.963Z,4
2019-05-25T02:40:27.650Z,4
2019-05-25T02:41:28.341Z,4
2019-05-25T02:42:29.023Z,4
2019-05-25T02:43:29.681Z,4
2019-05-25T02:44:30.373Z,4
2019-05-25T02:45:31.052Z,8
2019-05-25T02:46:31.738Z,8
2019-05-25T02:47:32.422Z,8
2019-05-25T02:48:33.115Z,12
2019-05-25T02:49:33.802Z,12
2019-05-25T02:50:34.484Z,12
2019-05-25T02:51:35.175Z,16
2019-05-25T02:52:35.884Z,16
2019-05-25T02:53:36.568Z,16
2019-05-25T02:54:37.266Z,20
2019-05-25T02:55:37.946Z,20
2019-05-25T02:56:38.632Z,24
2019-05-25T02:57:39.317Z,24
2019-05-25T02:58:40.017Z,32
2019-05-25T02:59:40.693Z,36
2019-05-25T03:00:41.385Z,44
2019-05-25T03:01:42.081Z,44
2019-05-25T03:02:42.817Z,48
2019-05-25T03:03:43.464Z,60
2019-05-25T03:04:44.152Z,68
2019-05-25T03:05:44.976Z,72
2019-05-25T03:06:45.537Z,76
2019-05-25T03:07:46.224Z,84
2019-05-25T03:08:46.913Z,92
2019-05-25T03:09:47.603Z,104
2019-05-25T03:10:48.295Z,120
2019-05-25T03:11:48.979Z,128
2019-05-25T03:12:49.667Z,136
2019-05-25T03:13:50.369Z,152
2019-05-25T03:14:51.051Z,160
2019-05-25T03:15:51.746Z,172
2019-05-25T03:16:52.429Z,192
2019-05-25T03:17:53.114Z,212
2019-05-25T03:18:53.809Z,236
2019-05-25T03:19:54.493Z,248
2019-05-25T03:20:55.178Z,260
2019-05-25T03:21:55.873Z,276
2019-05-25T03:22:56.568Z,300
2019-05-25T03:23:57.253Z,324
2019-05-25T03:24:57.936Z,348
2019-05-25T03:25:58.629Z,356
2019-05-25T03:26:59.316Z,364
2019-05-25T03:28:00.012Z,396
2019-05-25T03:29:00.701Z,420
2019-05-25T03:30:01.393Z,448
2019-05-25T03:31:02.090Z,484
2019-05-25T03:32:02.778Z,516
2019-05-25T03:33:03.434Z,540
2019-05-25T03:34:04.117Z,576
2019-05-25T03:35:04.807Z,596
2019-05-25T03:36:05.501Z,612
2019-05-25T03:37:06.247Z,648
2019-05-25T03:38:06.884Z,712
2019-05-25T03:39:07.580Z,732
2019-05-25T03:40:08.282Z,752
2019-05-25T03:41:08.956Z,784
2019-05-25T03:42:09.657Z,852
2019-05-25T03:43:10.338Z,872
2019-05-25T03:44:11.023Z,908
2019-05-25T03:45:11.711Z,976
2019-05-25T03:46:12.403Z,1016
2019-05-25T03:47:13.095Z,1084
2019-05-25T03:48:13.787Z,1180
2019-05-25T03:49:14.480Z,1200
2019-05-25T03:50:15.169Z,1244
2019-05-25T03:51:15.855Z,1256
2019-05-25T03:52:16.550Z,1300
2019-05-25T03:53:17.242Z,1384
2019-05-25T03:54:17.933Z,1472
2019-05-25T03:55:18.626Z,1620
2019-05-25T03:56:19.312Z,1808
2019-05-25T03:57:20.015Z,1792
2019-05-25T03:58:20.700Z,1792
2019-05-25T03:59:21.393Z,1844
2019-05-25T04:00:22.085Z,1968
2019-05-25T04:01:22.778Z,1936
2019-05-25T04:02:23.467Z,1868
2019-05-25T04:03:24.157Z,1924
2019-05-25T04:04:24.855Z,2056
2019-05-25T04:05:25.538Z,2128
2019-05-25T04:06:26.236Z,2072
2019-05-25T04:07:26.918Z,2008
2019-05-25T04:08:27.625Z,2012
2019-05-25T04:09:28.301Z,2044
2019-05-25T04:10:28.989Z,2032
2019-05-25T04:11:29.680Z,2040
2019-05-25T04:12:30.370Z,2084
2019-05-25T04:13:31.055Z,2160
2019-05-25T04:14:31.749Z,2328
2019-05-25T04:15:32.475Z,2464
2019-05-25T04:16:33.130Z,2504
2019-05-25T04:17:33.818Z,2372
2019-05-25T04:18:34.517Z,2264
2019-05-25T04:19:35.198Z,2268
2019-05-25T04:20:35.893Z,2288
2019-05-25T04:21:36.582Z,2236
2019-05-25T04:22:37.279Z,2288
2019-05-25T04:23:37.972Z,2376
2019-05-25T04:24:38.663Z,2332
2019-05-25T04:25:39.362Z,2172
2019-05-25T04:26:40.046Z,2124
2019-05-25T04:27:40.736Z,2352
2019-05-25T04:28:41.430Z,2624
2019-05-25T04:29:42.126Z,2868
2019-05-25T04:30:42.814Z,3024
2019-05-25T04:31:43.478Z,3132
2019-05-25T04:32:44.186Z,3196
2019-05-25T04:33:44.861Z,3404
2019-05-25T04:34:45.572Z,3456
2019-05-25T04:35:46.253Z,3416
2019-05-25T04:36:46.941Z,3204
2019-05-25T04:37:47.633Z,3140
2019-05-25T04:38:48.351Z,3216
2019-05-25T04:39:49.011Z,3268
2019-05-25T04:40:49.706Z,3084
2019-05-25T04:41:50.398Z,2928
2019-05-25T04:42:51.101Z,2816
2019-05-25T04:43:51.786Z,2904
2019-05-25T04:44:52.480Z,3300
2019-05-25T04:45:53.172Z,3828
2019-05-25T04:46:53.867Z,3984
2019-05-25T04:47:54.557Z,4076
2019-05-25T04:48:55.247Z,4124
2019-05-25T04:49:55.944Z,4232
2019-05-25T04:50:56.635Z,4448
2019-05-25T04:51:57.331Z,4624
2019-05-25T04:52:58.021Z,4832
2019-05-25T04:53:58.715Z,5048
2019-05-25T04:54:59.402Z,4964
2019-05-25T04:56:00.094Z,4740
2019-05-25T04:57:00.827Z,4660
2019-05-25T04:58:01.502Z,4756
2019-05-25T04:59:02.184Z,4828
2019-05-25T05:00:02.904Z,5024
2019-05-25T05:01:03.594Z,4960
2019-05-25T05:02:04.285Z,4824
2019-05-25T05:03:04.977Z,4832
2019-05-25T05:04:05.685Z,5088
2019-05-25T05:05:06.373Z,5520
2019-05-25T05:06:07.069Z,5660
2019-05-25T05:07:07.764Z,5552
2019-05-25T05:08:08.451Z,5700
2019-05-25T05:09:09.142Z,5736
2019-05-25T05:10:09.836Z,5872
2019-05-25T05:11:10.527Z,6104
2019-05-25T05:12:11.221Z,6316
2019-05-25T05:13:11.921Z,6500
2019-05-25T05:14:12.621Z,6532
2019-05-25T05:15:13.324Z,6324
2019-05-25T05:16:13.990Z,6532
2019-05-25T05:17:14.689Z,6796
2019-05-25T05:18:15.378Z,6544
2019-05-25T05:19:16.071Z,6056
2019-05-25T05:20:16.764Z,5668
2019-05-25T05:21:17.459Z,5572
2019-05-25T05:22:18.160Z,5556
2019-05-25T05:23:18.853Z,5712
2019-05-25T05:24:19.538Z,5724
2019-05-25T05:25:20.195Z,5788
2019-05-25T05:26:20.890Z,6004
2019-05-25T05:27:21.585Z,6012
2019-05-25T05:28:22.275Z,5612
2019-05-25T05:29:22.976Z,5012
2019-05-25T05:30:23.662Z,4520
2019-05-25T05:31:24.362Z,4320
2019-05-25T05:32:27.905Z,4372
2019-05-25T05:33:25.742Z,4448
2019-05-25T05:34:26.445Z,4208
2019-05-25T05:35:27.140Z,3960
2019-05-25T05:36:27.826Z,4036
2019-05-25T05:37:28.525Z,4252
2019-05-25T05:38:29.212Z,4280
2019-05-25T05:39:29.918Z,4216
2019-05-25T05:40:30.605Z,4404
2019-05-25T05:41:31.390Z,4792
2019-05-25T05:42:31.990Z,5068
2019-05-25T05:43:32.680Z,5208
2019-05-25T05:44:33.380Z,5732
2019-05-25T05:45:34.084Z,6052
2019-05-25T05:46:34.771Z,5836
2019-05-25T05:47:35.467Z,5776
2019-05-25T05:48:36.164Z,6184
2019-05-25T05:49:36.854Z,6440
2019-05-25T05:50:37.550Z,6812
2019-05-25T05:51:38.243Z,7288
2019-05-25T05:52:38.941Z,7424
2019-05-25T05:53:39.628Z,7316
2019-05-25T05:54:40.326Z,7280
2019-05-25T05:55:41.017Z,7340
2019-05-25T05:56:41.713Z,7516
2019-05-25T05:57:42.407Z,7540
2019-05-25T05:58:43.105Z,7384
2019-05-25T05:59:43.799Z,7732
2019-05-25T06:00:44.490Z,7472
2019-05-25T06:01:45.183Z,6868
2019-05-25T06:02:45.879Z,7088
2019-05-25T06:03:46.584Z,7584
2019-05-25T06:04:47.270Z,7552
2019-05-25T06:05:47.974Z,7064
2019-05-25T06:06:48.662Z,6524
2019-05-25T06:07:49.354Z,6300
2019-05-25T06:08:50.048Z,6836
2019-05-25T06:09:50.744Z,7496
2019-05-25T06:10:51.435Z,7668
2019-05-25T06:11:52.131Z,7696
2019-05-25T06:12:52.822Z,7812
2019-05-25T06:13:53.521Z,7864
2019-05-25T06:14:54.217Z,7912
2019-05-25T06:15:56.006Z,7688
2019-05-25T06:16:55.604Z,7568
2019-05-25T06:17:56.293Z,7588
2019-05-25T06:18:56.984Z,7656
2019-05-25T06:19:57.680Z,7732
2019-05-25T06:20:58.380Z,8052
2019-05-25T06:21:59.099Z,8768
2019-05-25T06:22:59.762Z,9496
2019-05-25T06:24:00.447Z,9528
2019-05-25T06:25:01.148Z,9308
2019-05-25T06:26:01.845Z,9540
2019-05-25T06:27:02.535Z,10028
2019-05-25T06:28:03.228Z,10252
2019-05-25T06:29:03.922Z,10192
2019-05-25T06:30:04.613Z,10232
2019-05-25T06:31:05.280Z,10336
2019-05-25T06:32:05.945Z,10348
2019-05-25T06:33:06.642Z,10356
2019-05-25T06:34:07.336Z,10404
2019-05-25T06:35:08.034Z,10580
2019-05-25T06:36:08.733Z,10620
2019-05-25T06:37:09.429Z,10196
2019-05-25T06:38:10.126Z,10148
2019-05-25T06:39:10.837Z,10620
2019-05-25T06:40:11.538Z,11028
2019-05-25T06:41:12.210Z,10952
2019-05-25T06:42:12.908Z,10612
2019-05-25T06:43:13.599Z,10232
2019-05-25T06:44:14.312Z,10392
2019-05-25T06:45:14.992Z,10748
2019-05-25T06:46:15.685Z,10980
2019-05-25T06:47:16.383Z,11060
2019-05-25T06:48:17.082Z,11160
2019-05-25T06:49:17.776Z,11276
2019-05-25T06:50:18.474Z,11480
2019-05-25T06:51:19.172Z,11668
2019-05-25T06:52:19.872Z,12000
2019-05-25T06:53:20.565Z,12692
2019-05-25T06:54:21.265Z,13364
2019-05-25T06:55:21.956Z,13700
2019-05-25T06:56:22.651Z,14072
2019-05-25T06:57:23.349Z,14352
2019-05-25T06:58:24.042Z,14468
2019-05-25T06:59:24.764Z,14744
2019-05-25T07:00:25.461Z,15168
2019-05-25T07:01:26.159Z,15548
2019-05-25T07:02:26.855Z,16176
2019-05-25T07:03:27.558Z,17216
2019-05-25T07:04:28.245Z,18688
2019-05-25T07:05:28.938Z,19712
2019-05-25T07:06:29.636Z,20064
2019-05-25T07:07:30.327Z,19488
2019-05-25T07:08:31.027Z,18752
2019-05-25T07:09:31.726Z,18496
2019-05-25T07:10:32.428Z,19584
2019-05-25T07:11:33.118Z,20928
2019-05-25T07:12:33.814Z,22080
2019-05-25T07:13:34.510Z,23232
2019-05-25T07:14:35.203Z,24192
2019-05-25T07:15:35.895Z,24224
2019-05-25T07:16:36.591Z,23872
2019-05-25T07:17:37.291Z,23360
2019-05-25T07:18:37.989Z,23424
2019-05-25T07:19:38.682Z,23808
2019-05-25T07:20:39.374Z,24448
2019-05-25T07:21:40.068Z,24800
2019-05-25T07:22:40.767Z,24320
2019-05-25T07:23:41.526Z,23712
2019-05-25T07:24:42.153Z,24160
2019-05-25T07:25:42.859Z,24672
2019-05-25T07:26:43.544Z,23968
2019-05-25T07:27:58.108Z,22944
2019-05-25T07:28:44.984Z,22560
2019-05-25T07:29:45.701Z,22752
2019-05-25T07:30:46.791Z,23456
2019-05-25T07:31:47.173Z,24864
2019-05-25T07:32:47.865Z,25504
2019-05-25T07:33:48.552Z,25856
2019-05-25T07:34:49.294Z,25696
2019-05-25T07:35:50.008Z,26272
2019-05-25T07:36:50.722Z,25600
2019-05-25T07:37:51.487Z,24608
2019-05-25T07:38:52.196Z,24256
2019-05-25T07:39:52.893Z,23776
2019-05-25T07:40:53.602Z,23328
2019-05-25T07:41:54.285Z,22752
2019-05-25T07:42:54.986Z,22560
2019-05-25T07:43:55.681Z,23040
2019-05-25T07:44:56.377Z,24352
2019-05-25T07:45:57.073Z,25248
2019-05-25T07:46:57.773Z,24928
2019-05-25T07:47:58.469Z,24672
2019-05-25T07:48:59.170Z,25280
2019-05-25T07:49:59.866Z,26848
2019-05-25T07:51:00.574Z,28960
2019-05-25T07:52:02.851Z,30784
2019-05-25T07:53:01.958Z,31200
2019-05-25T07:54:02.666Z,29216
2019-05-25T07:55:03.361Z,26240
2019-05-25T07:56:04.059Z,23168
2019-05-25T07:57:04.759Z,20352
2019-05-25T07:58:16.502Z,18080
2019-05-25T07:59:06.148Z,16728
2019-05-25T08:00:06.842Z,16460
2019-05-25T08:01:07.553Z,17696
2019-05-25T08:02:08.240Z,19648
2019-05-25T08:03:08.934Z,21248
2019-05-25T08:04:09.629Z,22496
2019-05-25T08:05:10.326Z,23712
2019-05-25T08:06:11.004Z,26080
2019-05-25T08:07:11.692Z,29504
2019-05-25T08:08:12.396Z,32960
2019-05-25T08:09:13.092Z,37472
2019-05-25T08:10:13.844Z,50496
2019-05-25T08:11:14.475Z,41920
2019-05-25T08:12:15.173Z,34368
2019-05-25T08:13:15.924Z,32608
2019-05-25T08:14:16.618Z,31392
2019-05-25T08:15:17.312Z,30560
2019-05-25T08:16:18.009Z,30592
2019-05-25T08:17:18.722Z,31776
2019-05-25T08:18:19.444Z,33760
2019-05-25T08:19:20.135Z,37696
2019-05-25T08:20:20.822Z,38976
2019-05-25T08:21:21.524Z,39296
2019-05-25T08:22:22.223Z,35360
2019-05-25T08:23:22.921Z,33376
2019-05-25T08:24:23.619Z,29984
2019-05-25T08:25:24.313Z,26240
2019-05-25T08:26:25.006Z,22848
2019-05-25T08:27:25.707Z,20128
2019-05-25T08:28:32.693Z,17888
2019-05-25T08:29:27.101Z,15948
2019-05-25T08:30:27.800Z,14928
2019-05-25T08:31:28.494Z,13912
2019-05-25T08:32:29.188Z,13592
2019-05-25T08:33:29.893Z,13920
2019-05-25T08:34:30.579Z,14256
2019-05-25T08:35:31.281Z,14464
2019-05-25T08:36:31.970Z,14552
2019-05-25T08:37:32.668Z,14676
2019-05-25T08:38:33.365Z,14692
2019-05-25T08:39:34.067Z,14892
2019-05-25T08:40:34.774Z,15060
2019-05-25T08:41:35.469Z,15308
2019-05-25T08:42:36.171Z,15500
2019-05-25T08:43:36.871Z,15664
2019-05-25T08:44:37.565Z,15600
2019-05-25T08:45:38.260Z,15212
2019-05-25T08:46:38.959Z,14692
2019-05-25T08:47:39.658Z,14168
2019-05-25T08:48:40.352Z,13780
2019-05-25T08:49:41.052Z,13524
2019-05-25T08:50:41.746Z,13240
2019-05-25T08:51:42.446Z,12864
2019-05-25T08:52:43.144Z,12428
2019-05-25T08:53:46.551Z,12136
2019-05-25T08:54:44.526Z,11976
2019-05-25T08:55:45.229Z,12000
2019-05-25T08:56:45.928Z,12096
2019-05-25T08:57:46.629Z,12244
2019-05-25T08:58:48.624Z,12440
2019-05-25T08:59:48.075Z,13020
2019-05-25T09:00:48.776Z,13740
2019-05-25T09:01:49.902Z,14548
2019-05-25T09:02:50.200Z,15240
2019-05-25T09:03:51.074Z,15664
2019-05-25T09:04:51.825Z,15740
2019-05-25T09:05:52.521Z,15516
2019-05-25T09:06:53.217Z,15476
2019-05-25T09:07:53.914Z,15800
2019-05-25T09:08:54.697Z,15708
2019-05-25T09:09:55.391Z,15208
2019-05-25T09:10:56.095Z,14884
2019-05-25T09:11:56.785Z,14636
2019-05-25T09:12:57.478Z,14440
2019-05-25T09:13:58.271Z,14728
2019-05-25T09:14:59.019Z,15928
2019-05-25T09:15:59.646Z,18272
2019-05-25T09:17:00.368Z,20768
2019-05-25T09:18:01.049Z,23296
2019-05-25T09:19:01.764Z,24992
2019-05-25T09:20:02.426Z,25632
2019-05-25T09:21:03.123Z,25504
2019-05-25T09:22:04.208Z,25600
2019-05-25T09:23:04.519Z,26432
2019-05-25T09:24:05.227Z,28192
2019-05-25T09:25:05.918Z,30272
2019-05-25T09:26:06.615Z,32000
2019-05-25T09:27:07.324Z,33728
2019-05-25T09:28:08.011Z,35968
2019-05-25T09:29:08.709Z,35584
2019-05-25T09:30:09.408Z,34112
2019-05-25T09:31:10.103Z,33056
2019-05-25T09:32:10.800Z,33152
2019-05-25T09:33:11.569Z,33856
2019-05-25T09:34:12.168Z,35552
2019-05-25T09:35:12.868Z,36800
2019-05-25T09:36:13.565Z,36800
2019-05-25T09:37:14.261Z,35520
2019-05-25T09:38:14.953Z,33952
2019-05-25T09:39:15.656Z,32576
2019-05-25T09:40:16.389Z,30560
2019-05-25T09:41:17.084Z,28384
2019-05-25T09:42:17.782Z,26400
2019-05-25T09:43:18.485Z,24736
2019-05-25T09:44:19.183Z,23616
2019-05-25T09:45:19.883Z,23232
2019-05-25T09:46:20.578Z,22720
2019-05-25T09:47:21.271Z,21376
2019-05-25T09:48:21.981Z,19904
2019-05-25T09:49:22.668Z,18720
2019-05-25T09:50:23.363Z,17632
2019-05-25T09:51:24.058Z,16496
2019-05-25T09:52:24.757Z,16008
2019-05-25T09:53:25.451Z,15844
2019-05-25T09:54:26.146Z,15748
2019-05-25T09:55:26.847Z,15736
2019-05-25T09:56:27.541Z,15664
2019-05-25T09:57:28.239Z,15680
2019-05-25T09:58:28.933Z,15360
2019-05-25T09:59:29.635Z,16316
2019-05-25T10:00:30.329Z,18112
2019-05-25T10:01:31.049Z,19168
2019-05-25T10:02:31.748Z,19808
2019-05-25T10:03:32.446Z,20128
2019-05-25T10:04:33.138Z,20736
2019-05-25T10:05:33.833Z,21280
2019-05-25T10:06:34.532Z,21568
2019-05-25T10:07:35.230Z,21568
2019-05-25T10:08:35.934Z,21696
2019-05-25T10:09:39.873Z,22560
2019-05-25T10:10:37.320Z,24032
2019-05-25T10:11:38.020Z,25920
2019-05-25T10:12:38.727Z,27936
2019-05-25T10:13:39.423Z,30208
2019-05-25T10:14:40.118Z,32224
2019-05-25T10:15:40.809Z,33440
2019-05-25T10:16:41.506Z,33152
2019-05-25T10:17:42.203Z,31360
2019-05-25T10:18:42.903Z,29408
2019-05-25T10:19:43.602Z,29184
2019-05-25T10:20:44.300Z,29600
2019-05-25T10:21:44.996Z,31328
2019-05-25T10:22:45.698Z,35008
2019-05-25T10:23:46.400Z,110944
2019-05-25T10:24:47.091Z,46304
2019-05-25T10:25:47.797Z,39008
2019-05-25T10:26:48.496Z,37408
2019-05-25T10:27:49.196Z,34592
2019-05-25T10:28:49.937Z,33152
2019-05-25T10:29:50.680Z,31328
2019-05-25T10:30:51.383Z,29760
2019-05-25T10:31:52.079Z,29120
2019-05-25T10:32:52.790Z,28960
2019-05-25T10:33:53.490Z,28864
2019-05-25T10:34:54.187Z,28928
2019-05-25T10:35:54.890Z,29056
2019-05-25T10:36:55.589Z,30272
2019-05-25T10:37:56.304Z,32672
2019-05-25T10:38:57.079Z,35488
2019-05-25T10:39:57.757Z,37728
2019-05-25T10:40:58.733Z,39936
2019-05-25T10:41:59.152Z,40704
2019-05-25T10:42:59.847Z,38880
2019-05-25T10:44:00.548Z,39424
2019-05-25T10:45:01.243Z,41312
2019-05-25T10:46:01.942Z,40288
2019-05-25T10:47:02.638Z,41760
2019-05-25T10:48:03.338Z,36896
2019-05-25T10:49:04.072Z,41280
2019-05-25T10:50:04.807Z,35744
2019-05-25T10:51:05.499Z,33472
2019-05-25T10:52:06.199Z,32000
2019-05-25T10:53:06.902Z,31072
2019-05-25T10:54:07.643Z,30240
2019-05-25T10:55:08.300Z,29152
2019-05-25T10:56:08.992Z,28800
2019-05-25T10:57:13.119Z,30720
2019-05-25T10:58:10.378Z,33376
2019-05-25T10:59:11.078Z,35136
2019-05-25T11:00:11.840Z,36640
2019-05-25T11:01:12.539Z,37984
2019-05-25T11:02:13.248Z,37728
2019-05-25T11:03:13.963Z,35872
2019-05-25T11:04:14.666Z,33664
2019-05-25T11:05:15.530Z,32192
2019-05-25T11:06:16.209Z,31776
2019-05-25T11:07:16.926Z,32256
2019-05-25T11:08:17.611Z,32384
2019-05-25T11:09:18.307Z,31776
2019-05-25T11:10:19.006Z,30464
2019-05-25T11:11:19.705Z,29728
2019-05-25T11:12:20.404Z,29696
2019-05-25T11:13:21.112Z,29984
2019-05-25T11:14:21.804Z,31008
2019-05-25T11:15:22.501Z,29664
2019-05-25T11:16:23.227Z,29728
2019-05-25T11:17:23.919Z,30336
2019-05-25T11:18:24.613Z,29536
2019-05-25T11:19:25.325Z,28608
2019-05-25T11:20:26.037Z,28032
2019-05-25T11:21:26.753Z,27904
2019-05-25T11:22:27.475Z,28384
2019-05-25T11:23:28.150Z,29536
2019-05-25T11:24:28.845Z,30560
2019-05-25T11:25:29.543Z,30816
2019-05-25T11:26:30.244Z,31424
2019-05-25T11:27:30.945Z,32896
2019-05-25T11:28:31.645Z,33856
2019-05-25T11:29:32.397Z,34336
2019-05-25T11:30:33.065Z,34176
2019-05-25T11:31:33.818Z,33440
2019-05-25T11:32:34.465Z,33088
2019-05-25T11:33:36.466Z,33952
2019-05-25T11:34:35.866Z,35552
2019-05-25T11:35:36.563Z,35488
2019-05-25T11:36:37.267Z,35552
2019-05-25T11:37:37.961Z,36416
2019-05-25T11:38:38.738Z,37056
2019-05-25T11:39:39.476Z,37312
2019-05-25T11:40:40.178Z,38368
2019-05-25T11:41:40.875Z,37440
2019-05-25T11:42:41.570Z,37600
2019-05-25T11:43:42.344Z,38176
2019-05-25T11:44:42.953Z,40224
2019-05-25T11:45:45.462Z,35424
2019-05-25T11:46:44.366Z,30784
2019-05-25T11:47:45.068Z,27904
2019-05-25T11:48:45.766Z,27072
2019-05-25T11:49:46.460Z,27904
2019-05-25T11:50:47.160Z,30144
2019-05-25T11:51:47.863Z,34048
2019-05-25T11:52:48.639Z,39392
2019-05-25T11:53:49.282Z,50528
2019-05-25T11:54:49.964Z,43296
2019-05-25T11:55:50.674Z,39904
2019-05-25T11:56:51.375Z,36736
2019-05-25T11:57:52.075Z,34752
2019-05-25T11:58:52.759Z,33568
2019-05-25T11:59:53.466Z,32640
2019-05-25T12:00:54.312Z,31648
2019-05-25T12:01:55.014Z,30208
2019-05-25T12:02:55.721Z,28608
2019-05-25T12:03:56.410Z,27136
2019-05-25T12:04:57.173Z,26432
2019-05-25T12:05:57.845Z,26336
2019-05-25T12:06:58.541Z,25984
2019-05-25T12:07:59.241Z,25888
2019-05-25T12:08:59.935Z,27392
2019-05-25T12:10:00.635Z,30592
2019-05-25T12:11:01.371Z,34496
2019-05-25T12:12:02.080Z,39424
2019-05-25T12:13:02.779Z,112928
2019-05-25T12:14:03.478Z,46496
2019-05-25T12:15:04.185Z,43520
2019-05-25T12:16:04.876Z,41856
2019-05-25T12:17:05.600Z,42560
2019-05-25T12:18:06.287Z,36064
2019-05-25T12:19:06.984Z,32192
2019-05-25T12:20:07.690Z,29696
2019-05-25T12:21:08.379Z,28192
2019-05-25T12:22:09.091Z,27392
2019-05-25T12:23:09.822Z,27040
2019-05-25T12:24:10.493Z,26944
2019-05-25T12:25:11.210Z,27328
2019-05-25T12:26:11.894Z,28416
2019-05-25T12:27:12.594Z,28928
2019-05-25T12:28:13.292Z,28128
2019-05-25T12:29:13.994Z,27072
2019-05-25T12:30:14.696Z,26592
2019-05-25T12:31:15.392Z,27040
2019-05-25T12:32:16.129Z,28256
2019-05-25T12:33:17.014Z,29920
2019-05-25T12:34:17.721Z,32128
2019-05-25T12:35:18.429Z,34048
2019-05-25T12:36:19.124Z,35552
2019-05-25T12:37:19.818Z,35008
2019-05-25T12:38:20.526Z,34784
2019-05-25T12:39:21.221Z,34368
2019-05-25T12:40:21.922Z,32384
2019-05-25T12:41:22.639Z,30528
2019-05-25T12:42:23.321Z,28800
2019-05-25T12:43:24.022Z,27456
2019-05-25T12:44:24.718Z,26592
2019-05-25T12:45:25.419Z,26272
2019-05-25T12:46:26.118Z,26144
2019-05-25T12:47:26.834Z,26016
2019-05-25T12:48:27.524Z,25888
2019-05-25T12:49:28.226Z,25888
2019-05-25T12:50:28.927Z,25920
2019-05-25T12:51:29.624Z,26528
2019-05-25T12:52:30.334Z,29440
2019-05-25T12:53:31.024Z,36608
2019-05-25T12:54:31.727Z,50048
2019-05-25T12:55:32.432Z,39808
2019-05-25T12:56:33.131Z,40608
2019-05-25T12:57:33.832Z,122240
2019-05-25T12:58:34.533Z,82592
2019-05-25T12:59:35.234Z,122240
2019-05-25T13:00:35.936Z,115616
2019-05-25T13:01:36.643Z,112768
2019-05-25T13:02:37.347Z,99840
2019-05-25T13:03:38.046Z,101152
2019-05-25T13:04:38.757Z,85536
2019-05-25T13:05:39.458Z,112480
2019-05-25T13:06:40.157Z,68416
2019-05-25T13:07:40.850Z,108864
2019-05-25T13:08:43.867Z,112960
2019-05-25T13:09:42.248Z,105600
2019-05-25T13:10:42.950Z,44608
2019-05-25T13:11:43.652Z,108672
2019-05-25T13:12:44.348Z,50144
2019-05-25T13:13:45.051Z,103392
2019-05-25T13:14:45.753Z,100128
2019-05-25T13:15:46.467Z,104480
2019-05-25T13:16:47.178Z,31232
2019-05-25T13:17:48.097Z,45184
2019-05-25T13:18:48.596Z,38368
2019-05-25T13:19:49.295Z,37600
2019-05-25T13:20:49.999Z,25344
2019-05-25T13:21:50.701Z,24352
2019-05-25T13:22:51.401Z,26016
2019-05-25T13:23:52.111Z,52384
2019-05-25T13:24:52.822Z,82144
2019-05-25T13:25:53.507Z,34912
2019-05-25T13:26:54.205Z,81856
2019-05-25T13:27:54.918Z,112672
2019-05-25T13:28:55.619Z,104224
2019-05-25T13:29:56.321Z,105408
2019-05-25T13:31:10.914Z,96032
2019-05-25T13:31:57.722Z,20576
2019-05-25T13:32:58.454Z,64512